Airport View

Enter AWOS ICAO identifier for current METAR.

ex. KFNL

KEQY 262253Z AUTO 00000KT 10SM CLR 09/M03 A2995 RMK AO2 SLP162 T00891028

26 Jan 2020 23:25

Frequency: 135.775

Phone: 704-283-5185

Other Area AWOS: KCLT - KLKR - KUZA - KJQF

TAF AMD KCLT 262154Z 2622/2724 28006KT P6SM FEW070 SCT150 FM270100 24003KT P6SM SCT070 BKN150 FM271000 VRB02KT 6SM BR OVC050 FM271200 24005KT 6SM BR VCSH OVC040 PROB30 2714/2720 4SM -RA BR OVC025 FM272100 26006KT P6SM SCT020 BKN030